createdAt,value
2023-04-16T00:02:17.417Z,2.00
2023-04-16T00:04:45.046Z,2.10
2023-04-16T00:07:16.051Z,1.90
2023-04-16T00:09:43.472Z,2.00
2023-04-16T00:12:11.159Z,1.63
2023-04-16T00:14:38.845Z,1.95
2023-04-16T00:17:06.331Z,1.85
2023-04-16T00:19:33.963Z,1.90
2023-04-16T00:22:01.430Z,1.52
2023-04-16T00:24:28.931Z,1.60
2023-04-16T00:26:57.332Z,1.70
2023-04-16T00:29:24.865Z,1.50
2023-04-16T00:31:52.383Z,1.80
2023-04-16T00:34:19.810Z,1.77
2023-04-16T00:36:47.360Z,1.67
2023-04-16T00:39:14.833Z,2.05
2023-04-16T00:41:44.135Z,1.73
2023-04-16T00:44:11.582Z,1.75
2023-04-16T00:46:39.595Z,1.55
2023-04-16T00:49:07.191Z,1.60
2023-04-16T00:51:36.177Z,1.75
2023-04-16T00:54:04.567Z,1.75
2023-04-16T00:56:33.645Z,1.75
2023-04-16T00:59:01.707Z,1.70
2023-04-16T01:01:29.132Z,1.50
2023-04-16T01:03:57.178Z,1.50
2023-04-16T01:06:24.676Z,1.38
2023-04-16T01:08:52.223Z,1.48
2023-04-16T01:11:19.663Z,1.33
2023-04-16T01:13:47.123Z,1.45
2023-04-16T01:16:14.992Z,1.70
2023-04-16T01:18:42.665Z,1.58
2023-04-16T01:21:10.155Z,1.33
2023-04-16T01:23:37.668Z,1.40
2023-04-16T01:26:05.267Z,1.60
2023-04-16T01:28:32.760Z,1.20
2023-04-16T01:31:00.910Z,1.77
2023-04-16T01:33:40.990Z,1.77
2023-04-16T01:36:08.960Z,1.40
2023-04-16T01:38:36.635Z,1.60
2023-04-16T01:41:04.098Z,1.60
2023-04-16T01:43:31.505Z,1.27
2023-04-16T01:46:31.393Z,1.48
2023-04-16T01:48:59.167Z,1.50
2023-04-16T01:51:27.665Z,1.20
2023-04-16T01:53:55.782Z,1.50
2023-04-16T01:56:23.295Z,1.40
2023-04-16T01:58:51.002Z,1.30
2023-04-16T02:01:19.794Z,1.13
2023-04-16T02:03:48.548Z,1.50
2023-04-16T02:06:16.872Z,1.55
2023-04-16T02:08:44.491Z,1.50
2023-04-16T02:11:12.058Z,1.60
2023-04-16T02:13:39.782Z,1.30
2023-04-16T02:16:07.670Z,1.40
2023-04-16T02:18:53.011Z,1.20
2023-04-16T02:21:23.111Z,1.20
2023-04-16T02:23:52.204Z,1.30
2023-04-16T02:26:26.787Z,1.30
2023-04-16T02:28:56.975Z,1.30
2023-04-16T02:31:29.966Z,1.15
2023-04-16T02:33:58.535Z,1.20
2023-04-16T02:36:26.161Z,1.08
2023-04-16T02:38:54.478Z,1.20
2023-04-16T02:41:21.917Z,1.25
2023-04-16T02:43:49.476Z,1.40
2023-04-16T02:46:17.150Z,1.92
2023-04-16T02:48:44.858Z,1.70
2023-04-16T02:51:12.270Z,1.20
2023-04-16T02:53:40.337Z,1.65
2023-04-16T02:56:08.021Z,1.63
2023-04-16T02:58:35.570Z,1.60
2023-04-16T03:01:03.194Z,1.58
2023-04-16T03:03:30.782Z,1.60
2023-04-16T03:05:58.349Z,1.50
2023-04-16T03:08:26.040Z,1.45
2023-04-16T03:10:56.512Z,1.38
2023-04-16T03:13:23.927Z,1.50
2023-04-16T03:15:51.532Z,1.52
2023-04-16T03:18:19.129Z,2.10
2023-04-16T03:20:47.698Z,1.33
2023-04-16T03:23:18.167Z,1.52
2023-04-16T03:25:48.195Z,1.40
2023-04-16T03:28:18.562Z,1.30
2023-04-16T03:30:53.286Z,1.40
2023-04-16T03:33:21.549Z,1.90
2023-04-16T03:35:56.298Z,1.50
2023-04-16T03:38:26.120Z,1.90
2023-04-16T03:40:56.576Z,1.65
2023-04-16T03:43:24.314Z,1.80
2023-04-16T03:45:51.921Z,1.63
2023-04-16T03:48:22.586Z,1.45
2023-04-16T03:50:51.064Z,1.70
2023-04-16T03:53:20.650Z,1.50
2023-04-16T03:55:56.337Z,1.80
2023-04-16T03:58:24.560Z,1.90
2023-04-16T04:00:59.284Z,2.05
2023-04-16T04:03:32.487Z,1.80
2023-04-16T04:06:10.391Z,1.90
2023-04-16T04:08:38.398Z,2.10
2023-04-16T04:11:06.836Z,2.10
2023-04-16T04:13:35.732Z,2.05
2023-04-16T04:16:05.093Z,1.92
2023-04-16T04:18:33.514Z,1.95
2023-04-16T04:21:07.979Z,1.83
2023-04-16T04:23:45.029Z,2.10
2023-04-16T04:26:15.828Z,2.10
2023-04-16T04:28:46.336Z,1.92
2023-04-16T04:31:18.661Z,2.40
2023-04-16T04:33:46.808Z,2.10
2023-04-16T04:36:14.262Z,1.67
2023-04-16T04:38:42.683Z,1.65
2023-04-16T04:41:10.193Z,1.90
2023-04-16T04:43:39.068Z,1.90
2023-04-16T04:46:07.213Z,2.20
2023-04-16T04:48:34.911Z,2.00
2023-04-16T04:51:05.437Z,1.90
2023-04-16T04:53:36.768Z,2.00
2023-04-16T04:56:12.280Z,2.00
2023-04-16T04:58:41.747Z,2.15
2023-04-16T05:01:09.485Z,1.85
2023-04-16T05:03:37.019Z,1.67
2023-04-16T05:06:04.789Z,1.90
2023-04-16T05:08:32.201Z,1.90
2023-04-16T05:10:59.773Z,2.00
2023-04-16T05:13:27.394Z,2.00
2023-04-16T05:15:55.098Z,1.90
2023-04-16T05:18:22.490Z,1.95
2023-04-16T05:20:49.968Z,1.80
2023-04-16T05:23:17.448Z,2.08
2023-04-16T05:25:44.909Z,1.83
2023-04-16T05:28:12.348Z,1.80
2023-04-16T05:30:39.823Z,1.60
2023-04-16T05:33:07.325Z,1.55
2023-04-16T05:35:35.417Z,1.80
2023-04-16T05:38:04.764Z,1.48
2023-04-16T05:40:32.676Z,1.30
2023-04-16T05:43:00.352Z,1.35
2023-04-16T05:45:28.194Z,1.40
2023-04-16T05:47:55.894Z,1.50
2023-04-16T05:50:23.439Z,1.10
2023-04-16T05:52:50.898Z,1.30
2023-04-16T05:55:18.408Z,1.52
2023-04-16T05:57:45.897Z,1.30
2023-04-16T06:00:13.552Z,1.20
2023-04-16T06:02:41.586Z,1.30
2023-04-16T06:05:10.714Z,1.30
2023-04-16T06:07:41.267Z,1.10
2023-04-16T06:10:11.995Z,1.10
2023-04-16T06:12:39.543Z,0.98
2023-04-16T06:15:10.081Z,1.10
2023-04-16T06:17:37.694Z,0.95
2023-04-16T06:20:05.734Z,0.80
2023-04-16T06:22:33.246Z,1.95
2023-04-16T06:25:01.247Z,1.38
2023-04-16T06:27:28.988Z,2.15
2023-04-16T06:29:57.784Z,1.50
2023-04-16T06:32:25.791Z,1.45
2023-04-16T06:34:53.328Z,1.25
2023-04-16T06:37:21.185Z,1.02
2023-04-16T06:39:48.636Z,1.40
2023-04-16T06:42:16.175Z,1.20
2023-04-16T06:44:43.841Z,1.60
2023-04-16T06:47:11.554Z,1.25
2023-04-16T06:49:40.187Z,1.20
2023-04-16T06:52:07.838Z,1.00
2023-04-16T06:54:35.577Z,0.85
2023-04-16T06:57:03.067Z,1.10
2023-04-16T06:59:30.562Z,1.20
2023-04-16T07:01:58.344Z,1.10
2023-04-16T07:04:26.307Z,1.02
2023-04-16T07:06:53.797Z,1.38
2023-04-16T07:09:24.616Z,1.10
2023-04-16T07:11:52.242Z,1.27
2023-04-16T07:14:19.765Z,1.58
2023-04-16T07:16:47.284Z,1.10
2023-04-16T07:19:15.039Z,1.27
2023-04-16T07:21:46.390Z,1.50
2023-04-16T07:24:14.090Z,1.55
2023-04-16T07:26:41.825Z,1.33
2023-04-16T07:29:09.468Z,1.95
2023-04-16T07:31:37.391Z,1.50
2023-04-16T07:34:05.045Z,1.30
2023-04-16T07:36:32.636Z,1.35
2023-04-16T07:39:00.138Z,1.40
2023-04-16T07:41:29.753Z,1.10
2023-04-16T07:43:57.998Z,1.17
2023-04-16T07:46:30.413Z,1.30
2023-04-16T07:49:00.881Z,1.42
2023-04-16T07:51:28.456Z,1.33
2023-04-16T07:53:56.027Z,1.42
2023-04-16T07:56:23.497Z,1.35
2023-04-16T07:58:51.049Z,1.27
2023-04-16T08:01:18.483Z,1.40
2023-04-16T08:03:46.380Z,1.02
2023-04-16T08:06:13.947Z,1.20
2023-04-16T08:08:41.754Z,1.23
2023-04-16T08:11:09.439Z,1.20
2023-04-16T08:13:37.131Z,1.08
2023-04-16T08:16:07.743Z,1.30
2023-04-16T08:18:35.339Z,1.20
2023-04-16T08:21:02.979Z,1.20
2023-04-16T08:23:30.660Z,1.05
2023-04-16T08:25:58.118Z,1.40
2023-04-16T08:28:25.692Z,1.80
2023-04-16T08:30:53.434Z,1.40
2023-04-16T08:33:21.937Z,1.08
2023-04-16T08:35:49.398Z,1.40
2023-04-16T08:38:18.658Z,1.20
2023-04-16T08:40:47.412Z,1.20
2023-04-16T08:43:16.605Z,1.20
2023-04-16T08:45:45.088Z,1.40
2023-04-16T08:48:12.832Z,1.15
2023-04-16T08:50:41.594Z,1.10
2023-04-16T08:53:23.967Z,1.02
2023-04-16T08:55:58.454Z,1.15
2023-04-16T08:58:36.002Z,1.30
2023-04-16T09:01:07.074Z,1.20
2023-04-16T09:03:36.597Z,0.98
2023-04-16T09:06:05.183Z,1.10
2023-04-16T09:08:36.329Z,1.17
2023-04-16T09:11:04.886Z,1.10
2023-04-16T09:13:32.598Z,1.02
2023-04-16T09:16:03.882Z,1.17
2023-04-16T09:18:34.013Z,1.05
2023-04-16T09:21:06.600Z,1.00
2023-04-16T09:23:34.058Z,0.98
2023-04-16T09:26:01.688Z,1.30
2023-04-16T09:28:47.381Z,0.90
2023-04-16T09:31:17.513Z,1.10
2023-04-16T09:34:04.400Z,0.90
2023-04-16T09:36:32.956Z,1.10
2023-04-16T09:39:01.145Z,1.00
2023-04-16T09:41:31.526Z,1.17
2023-04-16T09:44:07.237Z,1.30
2023-04-16T09:46:42.372Z,1.00
2023-04-16T09:49:21.580Z,1.10
2023-04-16T09:51:54.940Z,1.00
2023-04-16T09:54:22.417Z,1.02
2023-04-16T09:56:49.836Z,0.90
2023-04-16T09:59:18.484Z,1.00
2023-04-16T10:01:49.953Z,1.02
2023-04-16T10:04:18.019Z,1.00
2023-04-16T10:06:48.744Z,1.10
2023-04-16T10:09:16.441Z,1.02
2023-04-16T10:11:44.166Z,0.85
2023-04-16T10:14:14.430Z,1.00
2023-04-16T10:16:42.273Z,1.20
2023-04-16T10:19:10.269Z,1.17
2023-04-16T10:21:38.297Z,1.10
2023-04-16T10:24:06.212Z,1.10
2023-04-16T10:26:34.298Z,1.25
2023-04-16T10:29:03.208Z,1.20
2023-04-16T10:31:31.624Z,1.00
2023-04-16T10:33:59.804Z,0.93
2023-04-16T10:36:27.505Z,1.00
2023-04-16T10:39:00.214Z,1.00
2023-04-16T10:41:27.932Z,0.83
2023-04-16T10:44:12.629Z,1.10
2023-04-16T10:46:42.436Z,0.90
2023-04-16T10:49:20.554Z,0.93
2023-04-16T10:51:58.279Z,0.90
2023-04-16T10:54:28.526Z,1.02
2023-04-16T10:57:06.453Z,1.10
2023-04-16T10:59:38.748Z,1.10
2023-04-16T11:02:16.627Z,1.20
2023-04-16T11:04:50.840Z,0.90
2023-04-16T11:07:20.835Z,0.70
2023-04-16T11:09:59.707Z,1.20
2023-04-16T11:12:51.013Z,1.10
2023-04-16T11:15:22.226Z,1.08
2023-04-16T11:17:52.071Z,1.13
2023-04-16T11:20:27.202Z,1.00
2023-04-16T11:22:56.904Z,1.10
2023-04-16T11:25:30.281Z,1.27
2023-04-16T11:28:01.662Z,1.20
2023-04-16T11:30:30.786Z,1.00
2023-04-16T11:32:58.462Z,1.13
2023-04-16T11:35:26.056Z,1.70
2023-04-16T11:38:00.203Z,1.40
2023-04-16T11:40:31.750Z,1.40
2023-04-16T11:43:17.888Z,1.20
2023-04-16T11:46:16.740Z,1.17
2023-04-16T11:48:54.152Z,4.00
2023-04-16T11:51:23.760Z,1.80
2023-04-16T11:53:53.520Z,1.50
2023-04-16T11:56:30.979Z,2.17
2023-04-16T11:59:20.779Z,2.00
2023-04-16T12:01:51.583Z,1.20
2023-04-16T12:04:25.158Z,1.73
2023-04-16T12:07:13.265Z,1.58
2023-04-16T12:09:42.638Z,1.52
2023-04-16T12:12:27.638Z,1.80
2023-04-16T12:14:57.125Z,1.70
2023-04-16T12:17:25.296Z,1.60
2023-04-16T12:19:57.150Z,1.95
2023-04-16T12:22:35.983Z,1.60
2023-04-16T12:25:11.438Z,1.80
2023-04-16T12:27:53.306Z,1.83
2023-04-16T12:30:28.786Z,1.58
2023-04-16T12:33:18.829Z,1.50
2023-04-16T12:35:46.720Z,1.73
2023-04-16T12:38:15.742Z,1.40
2023-04-16T12:40:43.537Z,1.25
2023-04-16T12:43:11.466Z,1.30
2023-04-16T12:45:39.895Z,1.45
2023-04-16T12:48:07.821Z,1.70
2023-04-16T12:50:39.869Z,1.40
2023-04-16T12:53:09.670Z,1.42
2023-04-16T12:55:37.267Z,1.40
2023-04-16T12:58:07.149Z,1.65
2023-04-16T13:00:34.723Z,1.50
2023-04-16T13:03:02.400Z,1.15
2023-04-16T13:05:30.005Z,1.23
2023-04-16T13:07:57.650Z,1.55
2023-04-16T13:10:25.312Z,1.33
2023-04-16T13:12:53.038Z,1.50
2023-04-16T13:15:20.760Z,1.33
2023-04-16T13:17:48.567Z,1.20
2023-04-16T13:20:16.349Z,1.10
2023-04-16T13:22:43.823Z,1.00
2023-04-16T13:25:14.341Z,1.17
2023-04-16T13:27:41.852Z,1.25
2023-04-16T13:30:12.595Z,1.40
2023-04-16T13:32:41.135Z,1.33
2023-04-16T13:35:13.304Z,1.25
2023-04-16T13:37:42.230Z,1.63
2023-04-16T13:40:14.806Z,1.30
2023-04-16T13:43:11.845Z,1.30
2023-04-16T13:45:39.729Z,1.10
2023-04-16T13:48:07.238Z,1.50
2023-04-16T13:50:35.446Z,1.25
2023-04-16T13:53:03.046Z,1.10
2023-04-16T13:55:32.288Z,1.35
2023-04-16T13:58:00.112Z,1.30
2023-04-16T14:00:27.920Z,1.33
2023-04-16T14:02:55.726Z,1.13
2023-04-16T14:05:25.797Z,1.30
2023-04-16T14:07:54.715Z,1.13
2023-04-16T14:10:22.145Z,1.13
2023-04-16T14:12:49.875Z,1.27
2023-04-16T14:15:17.798Z,1.25
2023-04-16T14:17:45.647Z,1.40
2023-04-16T14:20:14.380Z,1.42
2023-04-16T14:22:42.741Z,1.50
2023-04-16T14:25:10.413Z,1.50
2023-04-16T14:27:37.930Z,1.40
2023-04-16T14:30:06.432Z,1.55
2023-04-16T14:32:36.655Z,1.42
2023-04-16T14:35:04.666Z,1.35
2023-04-16T14:37:36.556Z,1.42
2023-04-16T14:40:09.112Z,1.27
2023-04-16T14:42:37.800Z,1.58
2023-04-16T14:45:09.131Z,2.40
2023-04-16T14:47:38.453Z,2.00
2023-04-16T14:50:06.758Z,1.60
2023-04-16T14:52:34.474Z,1.67
2023-04-16T14:55:02.080Z,1.50
2023-04-16T14:57:30.204Z,1.90
2023-04-16T14:59:57.733Z,1.85
2023-04-16T15:02:26.762Z,1.80
2023-04-16T15:04:54.983Z,1.70
2023-04-16T15:07:22.555Z,1.92
2023-04-16T15:09:50.142Z,1.75
2023-04-16T15:12:19.147Z,2.35
2023-04-16T15:14:46.724Z,2.28
2023-04-16T15:17:14.267Z,2.17
2023-04-16T15:19:41.699Z,2.05
2023-04-16T15:22:09.278Z,2.20
2023-04-16T15:24:36.767Z,2.30
2023-04-16T15:27:06.184Z,2.03
2023-04-16T15:29:33.724Z,2.03
2023-04-16T15:32:01.402Z,1.70
2023-04-16T15:34:28.813Z,1.48
2023-04-16T15:36:57.038Z,1.92
2023-04-16T15:39:24.594Z,2.10
2023-04-16T15:42:01.234Z,1.75
2023-04-16T15:44:31.847Z,2.00
2023-04-16T15:46:59.777Z,1.80
2023-04-16T15:49:27.455Z,2.20
2023-04-16T15:51:56.298Z,2.08
2023-04-16T15:54:26.848Z,2.00
2023-04-16T15:56:54.418Z,1.83
2023-04-16T15:59:24.512Z,2.20
2023-04-16T16:01:52.080Z,1.88
2023-04-16T16:04:21.737Z,2.00
2023-04-16T16:06:55.300Z,2.00
2023-04-16T16:09:26.946Z,1.95
2023-04-16T16:11:57.459Z,2.20
2023-04-16T16:14:24.965Z,2.35
2023-04-16T16:16:55.022Z,2.33
2023-04-16T16:19:22.528Z,1.80
2023-04-16T16:21:50.507Z,2.08
2023-04-16T16:24:18.612Z,1.73
2023-04-16T16:26:46.132Z,2.13
2023-04-16T16:29:13.939Z,1.95
2023-04-16T16:31:41.640Z,1.90
2023-04-16T16:34:11.121Z,1.88
2023-04-16T16:36:47.246Z,2.10
2023-04-16T16:39:14.938Z,2.10
2023-04-16T16:41:43.317Z,1.65
2023-04-16T16:44:11.246Z,2.50
2023-04-16T16:46:38.748Z,2.28
2023-04-16T16:49:07.257Z,1.80
2023-04-16T16:51:34.993Z,2.08
2023-04-16T16:54:05.566Z,2.10
2023-04-16T16:56:33.076Z,2.28
2023-04-16T16:59:02.186Z,1.95
2023-04-16T17:01:30.263Z,2.15
2023-04-16T17:03:58.300Z,1.92
2023-04-16T17:06:26.903Z,1.92
2023-04-16T17:08:55.350Z,2.30
2023-04-16T17:11:22.795Z,2.17
2023-04-16T17:13:52.086Z,2.15
2023-04-16T17:16:19.782Z,2.70
2023-04-16T17:18:51.125Z,2.70
2023-04-16T17:23:48.780Z,2.78
2023-04-16T17:26:16.399Z,3.10
2023-04-16T17:28:43.932Z,3.15
2023-04-16T17:31:12.363Z,3.25
2023-04-16T17:33:40.297Z,3.03
2023-04-16T17:36:08.123Z,3.33
2023-04-16T17:38:35.827Z,3.00
2023-04-16T17:41:03.950Z,2.72
2023-04-16T17:43:31.353Z,3.00
2023-04-16T17:45:59.049Z,3.00
2023-04-16T17:48:26.635Z,3.15
2023-04-16T17:50:54.203Z,2.72
2023-04-16T17:53:22.508Z,3.20
2023-04-16T17:55:56.009Z,3.20
2023-04-16T17:58:26.739Z,2.75
2023-04-16T18:00:54.279Z,3.47
2023-04-16T18:03:22.207Z,3.00
2023-04-16T18:05:50.130Z,2.80
2023-04-16T18:08:17.637Z,2.50
2023-04-16T18:10:47.766Z,2.50
2023-04-16T18:13:17.042Z,2.88
2023-04-16T18:15:44.671Z,2.60
2023-04-16T18:18:12.242Z,2.53
2023-04-16T18:20:42.434Z,2.70
2023-04-16T18:23:10.143Z,2.40
2023-04-16T18:25:38.140Z,2.42
2023-04-16T18:28:07.599Z,2.20
2023-04-16T18:30:35.964Z,2.78
2023-04-16T18:33:25.282Z,2.78
2023-04-16T18:35:51.078Z,2.30
2023-04-16T18:38:18.526Z,2.38
2023-04-16T18:40:47.185Z,2.15
2023-04-16T18:43:14.672Z,2.20
2023-04-16T18:45:42.272Z,2.42
2023-04-16T18:48:09.684Z,1.98
2023-04-16T18:50:37.124Z,2.50
2023-04-16T18:53:04.666Z,2.33
2023-04-16T18:55:32.119Z,2.17
2023-04-16T18:58:01.925Z,2.20
2023-04-16T19:00:29.472Z,2.20
2023-04-16T19:02:57.087Z,1.95
2023-04-16T19:05:24.606Z,1.80
2023-04-16T19:07:52.084Z,1.65
2023-04-16T19:10:19.681Z,2.13
2023-04-16T19:12:47.099Z,1.75
2023-04-16T19:15:15.120Z,1.65
2023-04-16T19:17:42.706Z,1.75
2023-04-16T19:20:11.674Z,1.90
2023-04-16T19:22:39.406Z,1.70
2023-04-16T19:25:07.533Z,1.67
2023-04-16T19:27:35.241Z,1.77
2023-04-16T19:30:03.568Z,1.60
2023-04-16T19:32:31.499Z,1.77
2023-04-16T19:34:59.226Z,1.80
2023-04-16T19:37:27.421Z,1.77
2023-04-16T19:39:55.369Z,1.80
2023-04-16T19:42:22.785Z,1.65
2023-04-16T19:44:50.263Z,1.60
2023-04-16T19:47:20.382Z,1.60
2023-04-16T19:49:47.919Z,1.30
2023-04-16T19:52:16.660Z,1.80
2023-04-16T19:54:44.196Z,1.70
2023-04-16T19:57:11.679Z,1.30
2023-04-16T19:59:39.437Z,1.30
2023-04-16T20:02:07.461Z,1.65
2023-04-16T20:04:35.681Z,1.70
2023-04-16T20:07:06.203Z,1.83
2023-04-16T20:09:33.659Z,1.60
2023-04-16T20:12:02.295Z,1.60
2023-04-16T20:14:33.195Z,1.80
2023-04-16T20:17:02.208Z,1.55
2023-04-16T20:19:38.090Z,1.70
2023-04-16T20:22:06.869Z,1.83
2023-04-16T20:24:36.235Z,1.77
2023-04-16T20:27:03.809Z,1.50
2023-04-16T20:29:31.553Z,1.70
2023-04-16T20:31:59.840Z,1.63
2023-04-16T20:34:30.293Z,1.60
2023-04-16T20:36:58.275Z,1.45
2023-04-16T20:39:28.637Z,1.35
2023-04-16T20:41:58.867Z,1.40
2023-04-16T20:44:33.433Z,1.40
2023-04-16T20:47:01.062Z,1.30
2023-04-16T20:49:30.411Z,1.58
2023-04-16T20:51:57.841Z,1.30
2023-04-16T20:54:25.296Z,1.40
2023-04-16T20:56:52.732Z,1.45
2023-04-16T20:59:20.298Z,1.42
2023-04-16T21:01:48.080Z,1.40
2023-04-16T21:04:17.172Z,1.60
2023-04-16T21:06:45.639Z,1.30
2023-04-16T21:09:13.751Z,1.40
2023-04-16T21:11:42.793Z,1.40
2023-04-16T21:14:10.314Z,1.27
2023-04-16T21:16:37.874Z,1.40
2023-04-16T21:19:06.971Z,1.48
2023-04-16T21:21:34.435Z,1.50
2023-04-16T21:24:01.961Z,1.20
2023-04-16T21:26:29.298Z,1.55
2023-04-16T21:28:56.797Z,1.35
2023-04-16T21:31:26.996Z,1.45
2023-04-16T21:33:54.723Z,1.20
2023-04-16T21:36:22.657Z,1.50
2023-04-16T21:38:50.107Z,1.40
2023-04-16T21:41:17.574Z,1.40
2023-04-16T21:43:44.984Z,1.20
2023-04-16T21:46:12.406Z,1.50
2023-04-16T21:48:39.895Z,1.45
2023-04-16T21:51:08.350Z,1.30
2023-04-16T21:53:39.357Z,1.27
2023-04-16T21:56:08.169Z,1.38
2023-04-16T21:58:36.186Z,1.20
2023-04-16T22:01:03.793Z,1.60
2023-04-16T22:03:31.484Z,1.30
2023-04-16T22:06:02.272Z,1.25
2023-04-16T22:08:32.397Z,1.30
2023-04-16T22:11:02.134Z,1.20
2023-04-16T22:13:32.717Z,1.40
2023-04-16T22:16:03.694Z,1.40
2023-04-16T22:18:34.437Z,1.40
2023-04-16T22:21:02.324Z,1.50
2023-04-16T22:23:29.825Z,1.20
2023-04-16T22:25:59.459Z,1.30
2023-04-16T22:28:27.565Z,1.30
2023-04-16T22:30:57.878Z,1.20
2023-04-16T22:33:25.423Z,1.20
2023-04-16T22:35:52.878Z,1.30
2023-04-16T22:38:20.228Z,1.40
2023-04-16T22:40:49.254Z,1.50
2023-04-16T22:43:17.872Z,1.00
2023-04-16T22:45:46.696Z,1.30
2023-04-16T22:48:14.334Z,1.20
2023-04-16T22:50:48.734Z,1.33
2023-04-16T22:53:16.350Z,1.10
2023-04-16T22:55:43.797Z,1.10
2023-04-16T22:58:11.353Z,1.27
2023-04-16T23:00:38.801Z,1.00
2023-04-16T23:03:06.374Z,0.95
2023-04-16T23:05:34.881Z,1.10
2023-04-16T23:08:02.295Z,1.13
2023-04-16T23:10:29.782Z,0.90
2023-04-16T23:12:57.294Z,1.02
2023-04-16T23:15:24.732Z,0.90
2023-04-16T23:17:52.464Z,1.02
2023-04-16T23:20:20.084Z,0.80
2023-04-16T23:22:47.635Z,0.90
2023-04-16T23:25:15.099Z,0.90
2023-04-16T23:27:42.517Z,0.80
2023-04-16T23:30:10.358Z,0.80
2023-04-16T23:32:38.040Z,1.00
2023-04-16T23:35:05.992Z,0.75
2023-04-16T23:37:33.387Z,0.95
2023-04-16T23:40:00.914Z,0.82
2023-04-16T23:42:28.849Z,0.80
2023-04-16T23:44:56.285Z,0.70
2023-04-16T23:47:23.892Z,0.88
2023-04-16T23:49:51.353Z,0.82
2023-04-16T23:52:18.969Z,0.80
2023-04-16T23:54:46.521Z,1.00
2023-04-16T23:57:14.012Z,1.10
2023-04-16T23:59:41.539Z,0.95
